sensor_id;sensor_type;location;lat;lon;timestamp;temperature;humidity
64869;DHT22;51349;52.424;10.840;2023-09-18T00:00:19;16.90;99.90
64869;DHT22;51349;52.424;10.840;2023-09-18T00:05:21;16.80;99.90
64869;DHT22;51349;52.424;10.840;2023-09-18T00:10:23;16.70;99.90
64869;DHT22;51349;52.424;10.840;2023-09-18T00:15:24;16.70;99.90
64869;DHT22;51349;52.424;10.840;2023-09-18T00:20:24;16.50;99.90
64869;DHT22;51349;52.424;10.840;2023-09-18T00:25:28;16.60;99.90
64869;DHT22;51349;52.424;10.840;2023-09-18T00:30:31;16.50;99.90
64869;DHT22;51349;52.424;10.840;2023-09-18T00:35:31;16.40;99.90
64869;DHT22;51349;52.424;10.840;2023-09-18T00:40:32;16.40;99.90
64869;DHT22;51349;52.424;10.840;2023-09-18T00:45:34;16.40;99.90
64869;DHT22;51349;52.424;10.840;2023-09-18T00:50:35;16.30;99.90
64869;DHT22;51349;52.424;10.840;2023-09-18T00:55:37;16.20;99.90
64869;DHT22;51349;52.424;10.840;2023-09-18T01:00:39;16.20;99.90
64869;DHT22;51349;52.424;10.840;2023-09-18T01:05:41;16.20;99.90
64869;DHT22;51349;52.424;10.840;2023-09-18T01:16:34;16.20;99.90
64869;DHT22;51349;52.424;10.840;2023-09-18T01:21:38;16.20;99.90
64869;DHT22;51349;52.424;10.840;2023-09-18T01:26:38;16.10;99.90
64869;DHT22;51349;52.424;10.840;2023-09-18T01:31:39;16.00;99.90
64869;DHT22;51349;52.424;10.840;2023-09-18T01:36:40;16.00;99.90
64869;DHT22;51349;52.424;10.840;2023-09-18T01:41:41;15.90;99.90
64869;DHT22;51349;52.424;10.840;2023-09-18T01:46:42;15.80;99.90
64869;DHT22;51349;52.424;10.840;2023-09-18T01:51:43;15.80;99.90
64869;DHT22;51349;52.424;10.840;2023-09-18T01:56:44;15.80;99.90
64869;DHT22;51349;52.424;10.840;2023-09-18T02:01:44;15.80;99.90
64869;DHT22;51349;52.424;10.840;2023-09-18T02:06:47;15.70;99.90
64869;DHT22;51349;52.424;10.840;2023-09-18T02:11:48;15.70;99.90
64869;DHT22;51349;52.424;10.840;2023-09-18T02:16:49;15.60;99.90
64869;DHT22;51349;52.424;10.840;2023-09-18T02:21:50;15.60;99.90
64869;DHT22;51349;52.424;10.840;2023-09-18T02:26:50;15.50;99.90
64869;DHT22;51349;52.424;10.840;2023-09-18T02:31:51;15.50;99.90
64869;DHT22;51349;52.424;10.840;2023-09-18T02:36:52;15.40;99.90
64869;DHT22;51349;52.424;10.840;2023-09-18T02:41:52;15.40;99.90
64869;DHT22;51349;52.424;10.840;2023-09-18T02:46:53;15.30;99.90
64869;DHT22;51349;52.424;10.840;2023-09-18T02:51:54;15.30;99.90
64869;DHT22;51349;52.424;10.840;2023-09-18T02:56:54;15.30;99.90
64869;DHT22;51349;52.424;10.840;2023-09-18T03:01:55;15.30;99.90
64869;DHT22;51349;52.424;10.840;2023-09-18T03:06:56;15.30;99.90
64869;DHT22;51349;52.424;10.840;2023-09-18T03:11:56;15.20;99.90
64869;DHT22;51349;52.424;10.840;2023-09-18T03:16:57;15.20;99.90
64869;DHT22;51349;52.424;10.840;2023-09-18T03:21:58;15.30;99.90
64869;DHT22;51349;52.424;10.840;2023-09-18T03:26:58;15.20;99.90
64869;DHT22;51349;52.424;10.840;2023-09-18T03:31:59;15.20;99.90
64869;DHT22;51349;52.424;10.840;2023-09-18T03:37:00;15.10;99.90
64869;DHT22;51349;52.424;10.840;2023-09-18T03:42:00;15.10;99.90
64869;DHT22;51349;52.424;10.840;2023-09-18T03:47:01;15.00;99.90
64869;DHT22;51349;52.424;10.840;2023-09-18T03:52:01;15.00;99.90
64869;DHT22;51349;52.424;10.840;2023-09-18T03:57:03;15.00;99.90
64869;DHT22;51349;52.424;10.840;2023-09-18T04:02:04;15.00;99.90
64869;DHT22;51349;52.424;10.840;2023-09-18T04:07:08;14.90;99.90
64869;DHT22;51349;52.424;10.840;2023-09-18T04:12:09;14.90;99.90
64869;DHT22;51349;52.424;10.840;2023-09-18T04:17:10;14.80;99.90
64869;DHT22;51349;52.424;10.840;2023-09-18T04:22:10;14.80;99.90
64869;DHT22;51349;52.424;10.840;2023-09-18T04:27:11;14.80;99.90
64869;DHT22;51349;52.424;10.840;2023-09-18T04:32:12;14.80;99.90
64869;DHT22;51349;52.424;10.840;2023-09-18T04:37:12;14.70;99.90
64869;DHT22;51349;52.424;10.840;2023-09-18T04:42:13;14.70;99.90
64869;DHT22;51349;52.424;10.840;2023-09-18T04:47:13;14.70;99.90
64869;DHT22;51349;52.424;10.840;2023-09-18T04:52:14;14.70;99.90
64869;DHT22;51349;52.424;10.840;2023-09-18T04:57:15;14.70;99.90
64869;DHT22;51349;52.424;10.840;2023-09-18T05:02:15;14.70;99.90
64869;DHT22;51349;52.424;10.840;2023-09-18T05:07:16;14.80;99.90
64869;DHT22;51349;52.424;10.840;2023-09-18T05:12:17;14.80;99.90
64869;DHT22;51349;52.424;10.840;2023-09-18T05:17:18;14.80;99.90
64869;DHT22;51349;52.424;10.840;2023-09-18T05:22:19;14.90;99.90
64869;DHT22;51349;52.424;10.840;2023-09-18T05:27:19;15.00;99.90
64869;DHT22;51349;52.424;10.840;2023-09-18T05:32:20;15.00;99.90
64869;DHT22;51349;52.424;10.840;2023-09-18T05:37:21;15.10;99.90
64869;DHT22;51349;52.424;10.840;2023-09-18T05:42:21;15.20;99.90
64869;DHT22;51349;52.424;10.840;2023-09-18T05:47:22;15.40;99.90
64869;DHT22;51349;52.424;10.840;2023-09-18T05:52:23;15.60;99.90
64869;DHT22;51349;52.424;10.840;2023-09-18T05:57:25;15.90;99.90
64869;DHT22;51349;52.424;10.840;2023-09-18T06:02:27;16.20;99.90
64869;DHT22;51349;52.424;10.840;2023-09-18T06:07:28;16.50;99.90
64869;DHT22;51349;52.424;10.840;2023-09-18T06:12:29;16.70;99.90
64869;DHT22;51349;52.424;10.840;2023-09-18T06:17:30;17.30;99.90
64869;DHT22;51349;52.424;10.840;2023-09-18T06:22:31;17.40;99.90
64869;DHT22;51349;52.424;10.840;2023-09-18T06:27:34;17.60;99.90
64869;DHT22;51349;52.424;10.840;2023-09-18T06:32:37;17.90;99.90
64869;DHT22;51349;52.424;10.840;2023-09-18T06:37:38;18.40;99.90
64869;DHT22;51349;52.424;10.840;2023-09-18T06:42:38;19.00;99.90
64869;DHT22;51349;52.424;10.840;2023-09-18T06:47:39;19.10;99.90
64869;DHT22;51349;52.424;10.840;2023-09-18T06:52:41;19.30;99.90
64869;DHT22;51349;52.424;10.840;2023-09-18T06:57:42;19.60;99.90
64869;DHT22;51349;52.424;10.840;2023-09-18T07:02:43;20.10;99.90
64869;DHT22;51349;52.424;10.840;2023-09-18T07:07:43;20.30;99.90
64869;DHT22;51349;52.424;10.840;2023-09-18T07:12:44;20.40;99.90
64869;DHT22;51349;52.424;10.840;2023-09-18T07:17:45;20.70;99.90
64869;DHT22;51349;52.424;10.840;2023-09-18T07:22:46;20.80;99.90
64869;DHT22;51349;52.424;10.840;2023-09-18T07:27:48;20.80;99.90
64869;DHT22;51349;52.424;10.840;2023-09-18T07:32:48;20.80;99.90
64869;DHT22;51349;52.424;10.840;2023-09-18T07:37:49;20.80;99.90
64869;DHT22;51349;52.424;10.840;2023-09-18T07:42:50;20.80;99.90
64869;DHT22;51349;52.424;10.840;2023-09-18T07:47:51;20.80;99.90
64869;DHT22;51349;52.424;10.840;2023-09-18T07:52:51;20.70;99.90
64869;DHT22;51349;52.424;10.840;2023-09-18T07:57:52;20.70;99.90
64869;DHT22;51349;52.424;10.840;2023-09-18T08:02:55;20.70;99.90
64869;DHT22;51349;52.424;10.840;2023-09-18T08:08:01;20.90;99.90
64869;DHT22;51349;52.424;10.840;2023-09-18T08:13:05;21.00;99.90
64869;DHT22;51349;52.424;10.840;2023-09-18T08:18:05;21.20;99.90
64869;DHT22;51349;52.424;10.840;2023-09-18T08:23:07;21.30;99.90
64869;DHT22;51349;52.424;10.840;2023-09-18T08:28:08;21.40;99.90
64869;DHT22;51349;52.424;10.840;2023-09-18T08:33:08;21.60;99.90
64869;DHT22;51349;52.424;10.840;2023-09-18T08:38:09;21.80;99.90
64869;DHT22;51349;52.424;10.840;2023-09-18T08:43:12;21.90;99.90
64869;DHT22;51349;52.424;10.840;2023-09-18T08:48:14;22.00;99.90
64869;DHT22;51349;52.424;10.840;2023-09-18T08:53:15;22.20;99.90
64869;DHT22;51349;52.424;10.840;2023-09-18T08:58:16;22.70;99.90
64869;DHT22;51349;52.424;10.840;2023-09-18T09:03:19;22.60;99.90
64869;DHT22;51349;52.424;10.840;2023-09-18T09:08:20;22.40;99.90
64869;DHT22;51349;52.424;10.840;2023-09-18T09:13:21;22.40;99.90
64869;DHT22;51349;52.424;10.840;2023-09-18T09:18:28;22.30;99.90
64869;DHT22;51349;52.424;10.840;2023-09-18T09:23:44;22.20;99.90
64869;DHT22;51349;52.424;10.840;2023-09-18T09:28:46;22.20;99.90
64869;DHT22;51349;52.424;10.840;2023-09-18T09:33:52;22.30;99.90
64869;DHT22;51349;52.424;10.840;2023-09-18T09:38:57;22.30;99.90
64869;DHT22;51349;52.424;10.840;2023-09-18T09:43:58;22.30;99.90
64869;DHT22;51349;52.424;10.840;2023-09-18T09:49:05;22.20;99.90
64869;DHT22;51349;52.424;10.840;2023-09-18T09:54:06;22.40;99.90
64869;DHT22;51349;52.424;10.840;2023-09-18T09:59:08;22.60;99.90
64869;DHT22;51349;52.424;10.840;2023-09-18T10:04:12;22.80;99.90
64869;DHT22;51349;52.424;10.840;2023-09-18T10:09:14;23.10;99.90
64869;DHT22;51349;52.424;10.840;2023-09-18T10:14:20;23.40;99.90
64869;DHT22;51349;52.424;10.840;2023-09-18T10:19:41;24.10;99.90
64869;DHT22;51349;52.424;10.840;2023-09-18T10:24:46;24.50;99.90
64869;DHT22;51349;52.424;10.840;2023-09-18T10:29:49;24.10;99.90
64869;DHT22;51349;52.424;10.840;2023-09-18T10:34:52;23.90;99.90
64869;DHT22;51349;52.424;10.840;2023-09-18T10:39:53;23.70;99.90
64869;DHT22;51349;52.424;10.840;2023-09-18T10:44:55;23.60;99.90
64869;DHT22;51349;52.424;10.840;2023-09-18T10:49:56;23.40;99.90
64869;DHT22;51349;52.424;10.840;2023-09-18T10:54:56;23.30;99.90
64869;DHT22;51349;52.424;10.840;2023-09-18T10:59:58;23.40;99.90
64869;DHT22;51349;52.424;10.840;2023-09-18T11:04:58;23.40;99.90
64869;DHT22;51349;52.424;10.840;2023-09-18T11:09:59;23.30;99.90
64869;DHT22;51349;52.424;10.840;2023-09-18T11:15:31;23.20;99.90
64869;DHT22;51349;52.424;10.840;2023-09-18T11:20:32;23.10;99.90
64869;DHT22;51349;52.424;10.840;2023-09-18T11:25:42;23.20;99.90
64869;DHT22;51349;52.424;10.840;2023-09-18T11:30:51;23.40;99.90
64869;DHT22;51349;52.424;10.840;2023-09-18T11:36:29;23.60;99.90
64869;DHT22;51349;52.424;10.840;2023-09-18T11:41:33;23.90;99.90
64869;DHT22;51349;52.424;10.840;2023-09-18T11:46:38;23.80;99.90
64869;DHT22;51349;52.424;10.840;2023-09-18T11:51:40;23.70;99.90
64869;DHT22;51349;52.424;10.840;2023-09-18T11:56:42;24.20;99.90
64869;DHT22;51349;52.424;10.840;2023-09-18T12:01:43;24.40;99.90
64869;DHT22;51349;52.424;10.840;2023-09-18T12:06:47;24.20;99.90
64869;DHT22;51349;52.424;10.840;2023-09-18T12:11:47;24.00;99.90
64869;DHT22;51349;52.424;10.840;2023-09-18T12:16:50;24.00;99.90
64869;DHT22;51349;52.424;10.840;2023-09-18T12:21:50;24.00;99.90
64869;DHT22;51349;52.424;10.840;2023-09-18T12:26:52;24.00;99.90
64869;DHT22;51349;52.424;10.840;2023-09-18T12:31:53;23.80;99.90
64869;DHT22;51349;52.424;10.840;2023-09-18T12:36:53;23.90;99.90
64869;DHT22;51349;52.424;10.840;2023-09-18T12:41:54;24.00;99.90
64869;DHT22;51349;52.424;10.840;2023-09-18T12:46:55;24.40;99.90
64869;DHT22;51349;52.424;10.840;2023-09-18T12:52:00;24.60;99.90
64869;DHT22;51349;52.424;10.840;2023-09-18T12:57:01;24.50;99.90
64869;DHT22;51349;52.424;10.840;2023-09-18T13:02:05;24.30;99.90
64869;DHT22;51349;52.424;10.840;2023-09-18T13:07:13;24.20;99.90
64869;DHT22;51349;52.424;10.840;2023-09-18T13:12:14;24.10;99.90
64869;DHT22;51349;52.424;10.840;2023-09-18T13:17:15;24.20;99.90
64869;DHT22;51349;52.424;10.840;2023-09-18T13:22:25;24.10;99.90
64869;DHT22;51349;52.424;10.840;2023-09-18T13:27:26;24.00;99.90
64869;DHT22;51349;52.424;10.840;2023-09-18T13:32:27;23.90;99.90
64869;DHT22;51349;52.424;10.840;2023-09-18T13:37:27;23.80;99.90
64869;DHT22;51349;52.424;10.840;2023-09-18T13:42:29;23.70;99.90
64869;DHT22;51349;52.424;10.840;2023-09-18T13:47:33;23.60;99.90
64869;DHT22;51349;52.424;10.840;2023-09-18T13:52:34;23.60;99.90
64869;DHT22;51349;52.424;10.840;2023-09-18T13:57:35;23.50;99.90
64869;DHT22;51349;52.424;10.840;2023-09-18T14:02:36;23.50;99.90
64869;DHT22;51349;52.424;10.840;2023-09-18T14:07:37;23.50;99.90
64869;DHT22;51349;52.424;10.840;2023-09-18T14:12:45;23.50;99.90
64869;DHT22;51349;52.424;10.840;2023-09-18T14:17:45;23.40;99.90
64869;DHT22;51349;52.424;10.840;2023-09-18T14:22:46;23.30;99.90
64869;DHT22;51349;52.424;10.840;2023-09-18T14:27:50;23.20;99.90
64869;DHT22;51349;52.424;10.840;2023-09-18T14:32:50;23.20;99.90
64869;DHT22;51349;52.424;10.840;2023-09-18T14:37:51;23.10;99.90
64869;DHT22;51349;52.424;10.840;2023-09-18T14:42:52;23.10;99.90
64869;DHT22;51349;52.424;10.840;2023-09-18T14:47:53;23.10;99.90
64869;DHT22;51349;52.424;10.840;2023-09-18T14:52:53;23.10;99.90
64869;DHT22;51349;52.424;10.840;2023-09-18T14:57:54;23.10;99.90
64869;DHT22;51349;52.424;10.840;2023-09-18T15:02:54;22.90;99.90
64869;DHT22;51349;52.424;10.840;2023-09-18T15:07:55;22.90;99.90
64869;DHT22;51349;52.424;10.840;2023-09-18T15:12:56;22.90;99.90
64869;DHT22;51349;52.424;10.840;2023-09-18T15:17:56;22.80;99.90
64869;DHT22;51349;52.424;10.840;2023-09-18T15:22:58;22.70;99.90
64869;DHT22;51349;52.424;10.840;2023-09-18T15:27:58;22.70;99.90
64869;DHT22;51349;52.424;10.840;2023-09-18T15:32:59;22.60;99.90
64869;DHT22;51349;52.424;10.840;2023-09-18T15:38:00;22.60;99.90
64869;DHT22;51349;52.424;10.840;2023-09-18T15:43:01;22.60;99.90
64869;DHT22;51349;52.424;10.840;2023-09-18T15:48:02;22.50;99.90
64869;DHT22;51349;52.424;10.840;2023-09-18T15:53:04;22.50;99.90
64869;DHT22;51349;52.424;10.840;2023-09-18T15:58:05;22.50;99.90
64869;DHT22;51349;52.424;10.840;2023-09-18T16:03:07;22.40;99.90
64869;DHT22;51349;52.424;10.840;2023-09-18T16:08:08;22.30;99.90
64869;DHT22;51349;52.424;10.840;2023-09-18T16:13:09;22.30;99.90
64869;DHT22;51349;52.424;10.840;2023-09-18T16:18:09;22.20;99.90
64869;DHT22;51349;52.424;10.840;2023-09-18T16:23:11;22.20;99.90
64869;DHT22;51349;52.424;10.840;2023-09-18T16:28:12;22.10;99.90
64869;DHT22;51349;52.424;10.840;2023-09-18T16:33:13;22.10;99.90
64869;DHT22;51349;52.424;10.840;2023-09-18T16:38:13;22.00;99.90
64869;DHT22;51349;52.424;10.840;2023-09-18T16:43:14;22.00;99.90
64869;DHT22;51349;52.424;10.840;2023-09-18T16:48:14;21.90;99.90
64869;DHT22;51349;52.424;10.840;2023-09-18T16:53:15;21.80;99.90
64869;DHT22;51349;52.424;10.840;2023-09-18T16:58:16;21.70;99.90
64869;DHT22;51349;52.424;10.840;2023-09-18T17:03:16;21.60;99.90
64869;DHT22;51349;52.424;10.840;2023-09-18T17:08:17;21.50;99.90
64869;DHT22;51349;52.424;10.840;2023-09-18T17:13:18;21.50;99.90
64869;DHT22;51349;52.424;10.840;2023-09-18T17:18:19;21.40;99.90
64869;DHT22;51349;52.424;10.840;2023-09-18T17:23:20;21.20;99.90
64869;DHT22;51349;52.424;10.840;2023-09-18T17:28:21;21.20;99.90
64869;DHT22;51349;52.424;10.840;2023-09-18T17:33:21;21.00;99.90
64869;DHT22;51349;52.424;10.840;2023-09-18T17:38:22;21.00;99.90
64869;DHT22;51349;52.424;10.840;2023-09-18T17:43:24;20.90;99.90
64869;DHT22;51349;52.424;10.840;2023-09-18T17:48:24;20.80;99.90
64869;DHT22;51349;52.424;10.840;2023-09-18T17:53:25;20.80;99.90
64869;DHT22;51349;52.424;10.840;2023-09-18T17:58:26;20.70;99.90
64869;DHT22;51349;52.424;10.840;2023-09-18T18:03:27;20.60;99.90
64869;DHT22;51349;52.424;10.840;2023-09-18T18:08:27;20.50;99.90
64869;DHT22;51349;52.424;10.840;2023-09-18T18:13:28;20.40;99.90
64869;DHT22;51349;52.424;10.840;2023-09-18T18:18:29;20.30;99.90
64869;DHT22;51349;52.424;10.840;2023-09-18T18:23:30;20.20;99.90
64869;DHT22;51349;52.424;10.840;2023-09-18T18:28:30;20.10;99.90
64869;DHT22;51349;52.424;10.840;2023-09-18T18:33:32;20.00;99.90
64869;DHT22;51349;52.424;10.840;2023-09-18T18:38:32;20.00;99.90
64869;DHT22;51349;52.424;10.840;2023-09-18T18:43:34;19.90;99.90
64869;DHT22;51349;52.424;10.840;2023-09-18T18:48:35;19.90;99.90
64869;DHT22;51349;52.424;10.840;2023-09-18T18:53:39;19.80;99.90
64869;DHT22;51349;52.424;10.840;2023-09-18T18:58:41;19.80;99.90
64869;DHT22;51349;52.424;10.840;2023-09-18T19:03:42;19.80;99.90
64869;DHT22;51349;52.424;10.840;2023-09-18T19:08:43;19.70;99.90
64869;DHT22;51349;52.424;10.840;2023-09-18T19:13:45;19.60;99.90
64869;DHT22;51349;52.424;10.840;2023-09-18T19:18:47;19.40;99.90
64869;DHT22;51349;52.424;10.840;2023-09-18T19:23:48;19.30;99.90
64869;DHT22;51349;52.424;10.840;2023-09-18T19:28:49;19.40;99.90
64869;DHT22;51349;52.424;10.840;2023-09-18T19:33:51;19.30;99.90
64869;DHT22;51349;52.424;10.840;2023-09-18T19:38:51;19.20;99.90
64869;DHT22;51349;52.424;10.840;2023-09-18T19:43:53;19.30;99.90
64869;DHT22;51349;52.424;10.840;2023-09-18T19:48:54;19.20;99.90
64869;DHT22;51349;52.424;10.840;2023-09-18T19:53:55;19.10;99.90
64869;DHT22;51349;52.424;10.840;2023-09-18T19:58:56;19.20;99.90
64869;DHT22;51349;52.424;10.840;2023-09-18T20:03:56;19.20;99.90
64869;DHT22;51349;52.424;10.840;2023-09-18T20:08:57;19.30;99.90
64869;DHT22;51349;52.424;10.840;2023-09-18T20:13:58;19.30;99.90
64869;DHT22;51349;52.424;10.840;2023-09-18T20:18:59;19.30;99.90
64869;DHT22;51349;52.424;10.840;2023-09-18T20:24:00;19.30;99.90
64869;DHT22;51349;52.424;10.840;2023-09-18T20:29:00;19.10;99.90
64869;DHT22;51349;52.424;10.840;2023-09-18T20:34:01;19.10;99.90
64869;DHT22;51349;52.424;10.840;2023-09-18T20:39:02;19.10;99.90
64869;DHT22;51349;52.424;10.840;2023-09-18T20:44:04;19.10;99.90
64869;DHT22;51349;52.424;10.840;2023-09-18T20:49:05;19.20;99.90
64869;DHT22;51349;52.424;10.840;2023-09-18T20:54:06;19.30;99.90
64869;DHT22;51349;52.424;10.840;2023-09-18T20:59:08;19.30;99.90
64869;DHT22;51349;52.424;10.840;2023-09-18T21:04:09;19.20;99.90
64869;DHT22;51349;52.424;10.840;2023-09-18T21:09:10;19.30;99.90
64869;DHT22;51349;52.424;10.840;2023-09-18T21:14:12;19.40;99.90
64869;DHT22;51349;52.424;10.840;2023-09-18T21:19:13;19.30;99.90
64869;DHT22;51349;52.424;10.840;2023-09-18T21:24:13;19.20;99.90
64869;DHT22;51349;52.424;10.840;2023-09-18T21:29:14;19.20;99.90
64869;DHT22;51349;52.424;10.840;2023-09-18T21:34:15;19.20;99.90
64869;DHT22;51349;52.424;10.840;2023-09-18T21:39:15;19.30;99.90
64869;DHT22;51349;52.424;10.840;2023-09-18T21:44:16;19.20;99.90
64869;DHT22;51349;52.424;10.840;2023-09-18T21:49:17;19.30;99.90
64869;DHT22;51349;52.424;10.840;2023-09-18T21:54:18;19.30;99.90
64869;DHT22;51349;52.424;10.840;2023-09-18T21:59:18;19.30;99.90
64869;DHT22;51349;52.424;10.840;2023-09-18T22:04:19;19.40;99.90
64869;DHT22;51349;52.424;10.840;2023-09-18T22:09:21;19.40;99.90
64869;DHT22;51349;52.424;10.840;2023-09-18T22:14:25;19.40;99.90
64869;DHT22;51349;52.424;10.840;2023-09-18T22:19:26;19.40;99.90
64869;DHT22;51349;52.424;10.840;2023-09-18T22:24:26;19.40;99.90
64869;DHT22;51349;52.424;10.840;2023-09-18T22:29:27;19.50;99.90
64869;DHT22;51349;52.424;10.840;2023-09-18T22:34:28;19.40;99.90
64869;DHT22;51349;52.424;10.840;2023-09-18T22:56:09;17.70;99.90
64869;DHT22;51349;52.424;10.840;2023-09-18T23:01:10;17.50;99.90
64869;DHT22;51349;52.424;10.840;2023-09-18T23:06:10;17.10;99.90
64869;DHT22;51349;52.424;10.840;2023-09-18T23:11:11;16.80;99.90
64869;DHT22;51349;52.424;10.840;2023-09-18T23:16:13;16.70;99.90
64869;DHT22;51349;52.424;10.840;2023-09-18T23:21:13;16.60;99.90
64869;DHT22;51349;52.424;10.840;2023-09-18T23:26:15;16.50;99.90
64869;DHT22;51349;52.424;10.840;2023-09-18T23:31:17;16.40;99.90
64869;DHT22;51349;52.424;10.840;2023-09-18T23:36:18;16.30;99.90
64869;DHT22;51349;52.424;10.840;2023-09-18T23:41:18;16.30;99.90
64869;DHT22;51349;52.424;10.840;2023-09-18T23:46:21;16.20;99.90
64869;DHT22;51349;52.424;10.840;2023-09-18T23:51:25;16.10;99.90
64869;DHT22;51349;52.424;10.840;2023-09-18T23:56:27;16.00;99.90
